Time;durP1;ratioP1;P1;durP2;ratioP2;P2;SDS_P1;SDS_P2;PMS_P1;PMS_P2;Temp;Humidity;BMP_temperature;BMP_pressure;BME280_temperature;BME280_humidity;BME280_pressure;Samples;Min_cycle;Max_cycle;Signal;HPM_P1;HPM_P2
2023/03/24 00:01:15;;;;;;;22.42;13.80;;;;;;;15.33;100.00;101048.47;2077262;28;20099;-71
2023/03/24 00:02:40;;;;;;;21.30;12.73;;;;;;;15.33;100.00;101049.34;2075354;28;20098;-71
2023/03/24 00:04:03;;;;;;;24.73;12.60;;;;;;;15.33;100.00;101053.78;2081567;28;20457;-71
2023/03/24 00:05:27;;;;;;;18.13;11.43;;;;;;;15.33;100.00;101053.78;2079033;28;20140;-71
2023/03/24 00:06:51;;;;;;;20.73;12.60;;;;;;;15.34;100.00;101055.56;2082915;28;20041;-71
2023/03/24 00:08:12;;;;;;;22.58;14.50;;;;;;;15.34;100.00;101055.56;2085278;28;20052;-71
2023/03/24 00:09:35;;;;;;;21.88;13.52;;;;;;;15.33;100.00;101053.78;2085200;28;20053;-71
2023/03/24 00:11:03;;;;;;;21.20;12.40;;;;;;;15.34;100.00;101053.78;2083324;28;20060;-71
2023/03/24 00:12:25;;;;;;;18.15;11.68;;;;;;;15.33;100.00;101049.34;2086890;28;20509;-71
2023/03/24 00:13:48;;;;;;;18.75;11.90;;;;;;;15.33;100.00;101049.34;2064342;28;20058;-71
2023/03/24 00:15:14;;;;;;;18.00;11.50;;;;;;;15.33;100.00;101044.03;2075567;28;20049;-71
2023/03/24 00:16:37;;;;;;;21.48;12.23;;;;;;;15.34;100.00;101047.56;2078990;28;20064;-71
2023/03/24 00:18:00;;;;;;;17.48;11.75;;;;;;;15.33;100.00;101044.03;2086061;28;20845;-71
2023/03/24 00:19:21;;;;;;;19.40;11.48;;;;;;;15.34;100.00;101044.91;2086236;28;20044;-71
2023/03/24 00:20:44;;;;;;;21.50;11.45;;;;;;;15.35;100.00;101046.69;2086047;28;20087;-71
2023/03/24 00:22:13;;;;;;;21.13;12.02;;;;;;;15.35;100.00;101044.03;2086168;28;20069;-71
2023/03/24 00:23:34;;;;;;;17.90;11.55;;;;;;;15.33;100.00;101043.13;2080499;28;20045;-71
2023/03/24 00:24:57;;;;;;;17.75;11.70;;;;;;;15.32;100.00;101041.34;2078493;28;20053;-71
2023/03/24 00:26:18;;;;;;;17.48;11.15;;;;;;;15.29;100.00;101039.59;2085417;28;20147;-71
2023/03/24 00:27:43;;;;;;;17.05;11.15;;;;;;;15.25;100.00;101039.56;2087279;28;20055;-71
2023/03/24 00:29:06;;;;;;;19.55;10.75;;;;;;;15.22;100.00;101036.94;2082914;28;20045;-72
2023/03/24 00:30:29;;;;;;;20.90;11.02;;;;;;;15.20;100.00;101041.34;2075518;28;20505;-72
2023/03/24 00:31:52;;;;;;;16.90;10.70;;;;;;;15.20;100.00;101036.03;2075203;28;20060;-71
2023/03/24 00:33:15;;;;;;;21.23;11.07;;;;;;;15.19;100.00;101034.25;2067319;28;20506;-71
2023/03/24 00:34:37;;;;;;;20.48;11.15;;;;;;;15.19;100.00;101039.56;2075388;28;20386;-71
2023/03/24 00:36:01;;;;;;;17.63;11.20;;;;;;;15.20;100.00;101044.91;2077544;28;20053;-71
2023/03/24 00:37:24;;;;;;;18.08;11.77;;;;;;;15.21;100.00;101049.34;2090174;28;20041;-71
2023/03/24 00:38:46;;;;;;;22.38;12.05;;;;;;;15.24;100.00;101046.66;2080033;28;20049;-71
2023/03/24 00:40:11;;;;;;;;;;;;;;;15.20;100.00;101055.53;2081872;28;20041;-71
2023/03/24 00:41:34;;;;;;;20.77;11.25;;;;;;;15.23;100.00;101052.00;2088843;28;19928;-70
2023/03/24 00:42:55;;;;;;;16.90;10.38;;;;;;;15.28;100.00;101045.81;2081129;28;20116;-71
2023/03/24 00:44:18;;;;;;;19.67;10.48;;;;;;;15.33;100.00;101048.47;2093524;28;20135;-71
2023/03/24 00:45:45;;;;;;;16.95;11.05;;;;;;;15.36;100.00;101040.50;2090118;28;20651;-71
2023/03/24 00:47:10;;;;;;;18.90;10.77;;;;;;;15.40;100.00;101035.16;2080076;28;20107;-70
2023/03/24 00:48:33;;;;;;;20.67;10.82;;;;;;;15.43;100.00;101042.25;2069693;28;20511;-70
2023/03/24 00:49:56;;;;;;;18.60;11.73;;;;;;;15.45;100.00;101040.47;2083599;28;20394;-71
2023/03/24 00:51:19;;;;;;;15.10;9.57;;;;;;;15.46;100.00;101040.47;2080167;28;20436;-71
2023/03/24 00:52:42;;;;;;;22.38;11.15;;;;;;;15.48;100.00;101043.16;2082891;28;20041;-71
2023/03/24 00:54:05;;;;;;;20.02;10.93;;;;;;;15.48;100.00;101041.38;2086048;28;20048;-71
2023/03/24 00:55:27;;;;;;;20.60;10.93;;;;;;;15.51;100.00;101032.50;2087850;28;20049;-71
2023/03/24 00:56:54;;;;;;;17.70;10.68;;;;;;;15.53;100.00;101036.09;2085706;28;20077;-71
2023/03/24 00:58:18;;;;;;;18.10;10.68;;;;;;;15.54;100.00;101029.88;2078073;28;20056;-70
2023/03/24 00:59:41;;;;;;;18.17;10.23;;;;;;;15.55;100.00;101036.97;2074967;28;20132;-71
2023/03/24 01:01:05;;;;;;;18.92;10.30;;;;;;;15.57;100.00;101036.94;2083375;28;20053;-71
2023/03/24 01:02:30;;;;;;;19.08;10.18;;;;;;;15.57;100.00;101027.19;2075526;28;20065;-71
2023/03/24 01:03:52;;;;;;;21.13;11.55;;;;;;;15.58;100.00;101020.09;2085807;28;20106;-70
2023/03/24 01:05:16;;;;;;;20.42;11.18;;;;;;;15.58;100.00;101022.75;2090096;28;20087;-70
2023/03/24 01:06:39;;;;;;;17.85;9.75;;;;;;;15.57;100.00;101024.53;2082638;28;20084;-70
2023/03/24 01:08:02;;;;;;;18.40;10.43;;;;;;;15.57;100.00;101018.31;2069439;28;20871;-70
2023/03/24 01:09:25;;;;;;;18.48;9.93;;;;;;;15.56;100.00;101014.78;2091473;28;20052;-70
2023/03/24 01:10:52;;;;;;;17.75;10.13;;;;;;;15.54;100.00;101009.47;2082910;28;20531;-72
2023/03/24 01:12:17;;;;;;;17.40;10.30;;;;;;;15.53;100.00;101009.47;2082450;28;20063;-71
2023/03/24 01:13:41;;;;;;;14.68;8.93;;;;;;;15.51;100.00;101008.53;2085940;28;20044;-71
2023/03/24 01:15:05;;;;;;;17.60;10.13;;;;;;;15.49;100.00;101005.03;2102504;28;20052;-71
2023/03/24 01:16:28;;;;;;;19.17;10.00;;;;;;;15.45;100.00;101004.13;2081354;28;20140;-71
2023/03/24 01:17:54;;;;;;;15.98;10.23;;;;;;;15.42;100.00;101004.13;2082760;28;20162;-72
2023/03/24 01:19:17;;;;;;;17.00;9.13;;;;;;;15.38;100.00;101001.44;2085766;28;20057;-71
2023/03/24 01:20:39;;;;;;;16.42;10.32;;;;;;;15.35;100.00;100996.16;2079873;28;20050;-70
2023/03/24 01:22:04;;;;;;;21.17;9.57;;;;;;;15.32;100.00;100994.38;2077226;28;20077;-70
2023/03/24 01:23:25;;;;;;;18.15;10.20;;;;;;;15.30;100.00;100995.25;2075301;28;20098;-71
2023/03/24 01:24:49;;;;;;;15.13;9.18;;;;;;;15.27;100.00;100997.91;2082960;28;20103;-71
2023/03/24 01:26:11;;;;;;;19.38;10.35;;;;;;;15.22;100.00;100987.28;2076332;28;20053;-71
2023/03/24 01:27:33;;;;;;;19.13;9.85;;;;;;;15.19;100.00;100994.38;2082733;28;20148;-72
2023/03/24 01:28:55;;;;;;;16.90;10.27;;;;;;;15.14;100.00;100999.69;2084866;28;20057;-71
2023/03/24 01:30:20;;;;;;;18.65;10.07;;;;;;;15.12;100.00;100993.47;2077190;28;20041;-71
2023/03/24 01:31:43;;;;;;;18.17;10.48;;;;;;;15.07;100.00;100996.13;2083973;28;20685;-71
2023/03/24 01:33:07;;;;;;;19.25;11.00;;;;;;;15.07;100.00;100995.25;2076732;28;20073;-71
2023/03/24 01:34:30;;;;;;;18.02;10.57;;;;;;;15.05;100.00;100992.56;2074065;28;20107;-70
2023/03/24 01:35:53;;;;;;;18.63;10.18;;;;;;;15.05;100.00;100995.25;2075149;28;20080;-71
2023/03/24 01:37:15;;;;;;;19.92;10.57;;;;;;;15.06;100.00;100990.81;2082660;28;20056;-70
2023/03/24 01:38:37;;;;;;;20.95;11.23;;;;;;;15.06;100.00;100997.00;2079916;28;20048;-71
2023/03/24 01:40:00;;;;;;;26.77;10.77;;;;;;;15.07;100.00;100996.13;2077428;28;20041;-71
2023/03/24 01:41:23;;;;;;;21.08;11.10;;;;;;;15.06;100.00;100991.69;2085141;28;20037;-70
2023/03/24 01:42:44;;;;;;;20.35;10.65;;;;;;;15.07;100.00;100997.91;2082128;28;20061;-71
2023/03/24 01:44:32;;;;;;;17.08;10.18;;;;;;;15.05;100.00;100995.25;2080139;28;20056;-70
2023/03/24 01:45:59;;;;;;;21.10;10.52;;;;;;;15.06;100.00;101004.09;2087486;28;20060;-71
2023/03/24 01:47:22;;;;;;;16.55;10.05;;;;;;;15.04;100.00;100993.47;2085951;28;20041;-71
2023/03/24 01:48:50;;;;;;;17.42;10.15;;;;;;;15.03;100.00;100998.81;2076279;28;20053;-71
2023/03/24 01:50:13;;;;;;;15.05;8.82;;;;;;;15.02;100.00;100997.03;2084230;28;20052;-70
2023/03/24 01:51:40;;;;;;;18.08;10.13;;;;;;;15.01;100.00;100992.59;2076679;28;20045;-70
2023/03/24 01:53:06;;;;;;;17.50;10.13;;;;;;;14.99;100.00;100999.66;2066993;28;20057;-71
2023/03/24 01:54:32;;;;;;;17.90;10.18;;;;;;;14.99;100.00;101000.56;2081102;28;20048;-71
2023/03/24 01:55:57;;;;;;;18.23;9.13;;;;;;;14.98;100.00;101004.09;2085171;28;20123;-71
2023/03/24 01:57:28;;;;;;;18.95;10.52;;;;;;;14.97;100.00;100997.00;2077238;28;20545;-70
2023/03/24 01:58:55;;;;;;;15.60;9.93;;;;;;;14.97;100.00;101007.63;2074907;28;20044;-70
2023/03/24 02:00:22;;;;;;;19.92;11.85;;;;;;;14.97;100.00;101006.72;2070435;28;20045;-71
2023/03/24 02:02:21;;;;;;;24.50;14.50;;;;;;;14.97;100.00;101007.63;2086806;28;20056;-71
2023/03/24 02:03:48;;;;;;;26.90;16.55;;;;;;;14.99;100.00;101007.63;2070078;28;20046;-71
2023/03/24 02:05:13;;;;;;;22.08;12.65;;;;;;;15.01;100.00;101009.44;2076207;28;20033;-71
2023/03/24 02:06:42;;;;;;;17.48;10.82;;;;;;;15.04;100.00;101009.41;2078433;28;20440;-70
2023/03/24 02:08:11;;;;;;;17.67;11.02;;;;;;;15.07;100.00;101006.78;2077918;28;20041;-71
2023/03/24 02:09:34;;;;;;;20.75;10.85;;;;;;;15.08;100.00;101011.22;2085355;28;20081;-70
2023/03/24 02:10:57;;;;;;;20.27;10.13;;;;;;;15.11;100.00;101011.19;2084715;28;20044;-70
2023/03/24 02:12:24;;;;;;;18.95;10.20;;;;;;;15.11;100.00;101002.31;2076978;28;20053;-70
2023/03/24 02:13:47;;;;;;;17.00;9.88;;;;;;;15.10;100.00;101004.09;2097488;28;20075;-71
2023/03/24 02:15:10;;;;;;;20.50;9.73;;;;;;;15.08;100.00;101000.56;2077030;28;20053;-71
2023/03/24 02:17:13;;;;;;;16.25;9.55;;;;;;;15.06;100.00;101001.44;2073745;28;20653;-70
2023/03/24 02:18:46;;;;;;;15.73;9.38;;;;;;;15.04;100.00;101003.19;2048113;28;20384;-70
2023/03/24 02:20:59;;;;;;;16.88;8.95;;;;;;;15.01;100.00;101012.09;2069799;28;20042;-71
2023/03/24 02:22:52;;;;;;;20.15;10.65;;;;;;;15.01;100.00;101019.16;2087258;28;20429;-71
2023/03/24 02:24:36;;;;;;;16.17;10.90;;;;;;;15.05;100.00;101021.81;2078648;28;20135;-70
2023/03/24 02:26:30;;;;;;;20.05;10.95;;;;;;;15.10;100.00;101021.81;2071644;28;20054;-71
2023/03/24 02:28:17;;;;;;;18.30;9.65;;;;;;;15.16;100.00;101019.19;2071598;28;20050;-71
2023/03/24 02:30:11;;;;;;;17.25;9.60;;;;;;;15.19;100.00;101002.34;2086850;28;20080;-70
2023/03/24 02:31:56;;;;;;;17.95;9.65;;;;;;;15.20;100.00;100986.41;2078815;28;20111;-71
2023/03/24 02:33:51;;;;;;;16.92;8.85;;;;;;;15.20;100.00;100980.19;2071318;28;20046;-71
2023/03/24 02:35:32;;;;;;;14.98;9.13;;;;;;;15.17;100.00;100983.72;2076786;28;20045;-71
2023/03/24 02:37:20;;;;;;;16.83;9.25;;;;;;;15.14;100.00;100981.06;2086488;28;20140;-71
2023/03/24 02:39:19;;;;;;;18.13;9.55;;;;;;;15.10;100.00;100981.94;2079059;28;20068;-71
2023/03/24 02:40:46;;;;;;;15.75;8.63;;;;;;;15.11;100.00;100979.28;2090005;28;20110;-71
2023/03/24 02:42:20;;;;;;;17.20;8.82;;;;;;;15.15;100.00;100980.19;2087344;28;20136;-71
2023/03/24 02:43:51;;;;;;;18.35;9.77;;;;;;;15.18;100.00;100979.28;2099112;28;20075;-71
2023/03/24 02:45:26;;;;;;;20.67;9.50;;;;;;;15.19;100.00;100975.75;2080371;28;20045;-71
2023/03/24 02:46:54;;;;;;;15.98;9.43;;;;;;;15.21;100.00;100976.63;2085770;28;20049;-71
2023/03/24 02:48:23;;;;;;;14.38;8.80;;;;;;;15.23;100.00;100980.19;2077709;28;20045;-70
2023/03/24 02:49:55;;;;;;;16.13;8.82;;;;;;;15.25;100.00;100978.41;2083040;28;20053;-71
2023/03/24 02:51:22;;;;;;;16.42;8.80;;;;;;;15.28;100.00;100981.06;2078064;28;20045;-71
2023/03/24 02:52:50;;;;;;;18.15;9.20;;;;;;;15.31;100.00;100970.41;2077711;28;20279;-70
2023/03/24 02:54:19;;;;;;;17.13;9.82;;;;;;;15.34;100.00;100975.75;2075972;28;20045;-71
2023/03/24 02:55:47;;;;;;;19.40;9.52;;;;;;;15.36;100.00;100977.50;2084529;28;20458;-70
2023/03/24 02:57:18;;;;;;;16.02;9.43;;;;;;;15.38;100.00;100972.19;2085868;28;20136;-71
2023/03/24 02:59:03;;;;;;;17.00;8.93;;;;;;;15.36;100.00;100969.53;2103157;28;20093;-71
2023/03/24 03:00:33;;;;;;;15.20;8.52;;;;;;;15.36;100.00;100984.63;2079423;28;20501;-71
2023/03/24 03:02:06;;;;;;;16.75;8.63;;;;;;;15.36;100.00;100976.66;2084921;28;20639;-70
2023/03/24 03:03:38;;;;;;;19.00;8.80;;;;;;;15.34;100.00;100976.63;2078465;28;20140;-71
2023/03/24 03:05:04;;;;;;;16.33;8.93;;;;;;;15.33;100.00;100974.88;2083279;28;20049;-70
2023/03/24 03:06:30;;;;;;;19.63;9.05;;;;;;;15.34;100.00;100983.72;2085402;28;20493;-71
2023/03/24 03:07:56;;;;;;;14.50;9.25;;;;;;;15.35;100.00;100983.75;2081444;28;20099;-70
2023/03/24 03:09:22;;;;;;;16.83;9.10;;;;;;;15.34;100.00;100978.41;2094571;28;20037;-71
2023/03/24 03:10:49;;;;;;;17.98;9.20;;;;;;;15.32;100.00;100978.41;2086630;28;20049;-71
2023/03/24 03:12:14;;;;;;;18.75;9.48;;;;;;;15.33;100.00;100973.97;2092965;28;20123;-71
2023/03/24 03:13:38;;;;;;;16.83;8.45;;;;;;;15.31;100.00;100981.06;2080977;28;20061;-70
2023/03/24 03:15:06;;;;;;;16.40;9.88;;;;;;;15.32;100.00;100989.03;2070530;28;20135;-71
2023/03/24 03:16:38;;;;;;;16.92;9.35;;;;;;;15.33;100.00;100982.84;2070960;28;20072;-71
2023/03/24 03:18:06;;;;;;;15.30;8.25;;;;;;;15.35;100.00;100988.16;2078035;28;20537;-71
2023/03/24 03:19:32;;;;;;;18.65;9.13;;;;;;;15.34;100.00;101000.59;2087209;28;20037;-71
2023/03/24 03:20:59;;;;;;;14.45;8.73;;;;;;;15.35;100.00;100993.50;2081866;28;20061;-71
2023/03/24 03:22:26;;;;;;;17.23;9.45;;;;;;;15.36;100.00;100995.28;2087248;28;20082;-70
2023/03/24 03:23:51;;;;;;;16.88;8.82;;;;;;;15.36;100.00;100998.78;2078734;28;20099;-70
2023/03/24 03:25:19;;;;;;;15.85;8.93;;;;;;;15.38;100.00;100998.78;2078775;28;20041;-71
2023/03/24 03:26:41;;;;;;;14.13;9.10;;;;;;;15.38;100.00;101007.66;2086503;28;20037;-71
2023/03/24 03:28:07;;;;;;;16.60;8.27;;;;;;;15.40;100.00;101002.34;2086239;28;20552;-71
2023/03/24 03:29:34;;;;;;;15.55;9.00;;;;;;;15.41;100.00;101001.47;2081007;28;20557;-70
2023/03/24 03:31:00;;;;;;;17.35;9.45;;;;;;;15.41;100.00;101007.69;2078119;28;20132;-71
2023/03/24 03:32:27;;;;;;;15.73;9.35;;;;;;;15.43;100.00;101015.63;2086301;28;20131;-69
2023/03/24 03:33:53;;;;;;;16.15;8.73;;;;;;;15.43;100.00;101011.19;2086649;28;20067;-70
2023/03/24 03:35:21;;;;;;;18.23;9.30;;;;;;;15.44;100.00;101012.09;2078508;28;20049;-71
2023/03/24 03:36:50;;;;;;;19.08;9.45;;;;;;;15.43;100.00;101013.88;2084880;28;20131;-70
2023/03/24 03:38:18;;;;;;;15.25;9.63;;;;;;;15.44;100.00;101014.75;2087208;28;20139;-70
2023/03/24 03:39:48;;;;;;;17.75;8.70;;;;;;;15.43;100.00;101015.63;2093565;28;20525;-71
2023/03/24 03:41:13;;;;;;;19.95;8.75;;;;;;;15.43;100.00;101018.28;2080149;28;20555;-70
2023/03/24 03:42:37;;;;;;;19.20;8.77;;;;;;;15.42;100.00;101017.44;2081784;28;20049;-70
2023/03/24 03:43:59;;;;;;;15.70;8.82;;;;;;;15.44;100.00;101025.41;2078301;28;20053;-71
2023/03/24 03:45:22;;;;;;;15.57;9.18;;;;;;;15.43;100.00;101024.50;2074799;28;20187;-71
2023/03/24 03:46:43;;;;;;;15.40;8.82;;;;;;;15.43;100.00;101020.94;2076889;28;20092;-70
2023/03/24 03:48:11;;;;;;;15.05;8.82;;;;;;;15.42;100.00;101017.44;2085340;28;20149;-71
2023/03/24 03:49:35;;;;;;;17.60;8.43;;;;;;;15.41;100.00;101015.66;2087353;28;20072;-71
2023/03/24 03:50:57;;;;;;;13.48;8.07;;;;;;;15.41;100.00;101022.75;2079742;28;20049;-71
2023/03/24 03:52:19;;;;;;;18.58;8.88;;;;;;;15.41;100.00;101025.41;2069792;28;20041;-70
2023/03/24 03:53:50;;;;;;;15.18;8.43;;;;;;;15.40;100.00;101021.84;2076301;28;20061;-70
2023/03/24 03:55:12;;;;;;;16.40;8.65;;;;;;;15.39;100.00;101024.50;2084562;28;20505;-70
2023/03/24 03:56:39;;;;;;;14.48;8.60;;;;;;;15.38;100.00;101018.31;2075960;28;20140;-70
2023/03/24 03:58:20;;;;;;;15.80;9.00;;;;;;;15.35;100.00;101017.44;2080734;28;20103;-70
2023/03/24 03:59:51;;;;;;;16.40;9.27;;;;;;;15.35;100.00;101018.31;2079246;28;20049;-71
2023/03/24 04:01:17;;;;;;;16.00;8.95;;;;;;;15.36;100.00;101017.41;2076623;28;20033;-70
2023/03/24 04:03:28;;;;;;;18.67;8.85;;;;;;;15.32;100.00;101010.31;2080484;28;20142;-71
2023/03/24 04:05:26;;;;;;;15.02;9.13;;;;;;;15.31;100.00;101012.97;2079698;28;20490;-70
2023/03/24 04:07:09;;;;;;;16.17;8.65;;;;;;;15.30;100.00;101021.84;2085492;28;20171;-71
2023/03/24 04:08:44;;;;;;;16.20;9.60;;;;;;;15.29;100.00;101014.78;2080217;28;20549;-71
2023/03/24 04:10:17;;;;;;;16.77;8.43;;;;;;;15.29;100.00;101009.47;2080165;28;20163;-71
2023/03/24 04:12:18;;;;;;;16.50;8.25;;;;;;;15.28;100.00;101018.31;2085131;28;20060;-71
2023/03/24 04:14:42;;;;;;;17.23;9.02;;;;;;;15.26;100.00;101017.41;2104508;28;20113;-71
2023/03/24 04:16:46;;;;;;;17.98;8.45;;;;;;;15.27;100.00;101021.84;2094373;28;20134;-71
2023/03/24 04:18:39;;;;;;;15.27;8.88;;;;;;;15.30;100.00;101027.16;2072114;28;20065;-70
2023/03/24 04:20:11;;;;;;;14.93;8.95;;;;;;;15.32;100.00;101022.72;2072294;28;20069;-71
2023/03/24 04:21:53;;;;;;;19.25;8.45;;;;;;;15.34;100.00;101023.63;2082522;28;20043;-71
2023/03/24 04:23:29;;;;;;;15.23;9.65;;;;;;;15.36;100.00;101021.88;2080465;28;20448;-70
2023/03/24 04:25:00;;;;;;;15.55;9.50;;;;;;;15.39;100.00;101024.50;2086165;28;20041;-71
2023/03/24 04:26:33;;;;;;;14.23;8.88;;;;;;;15.43;100.00;101028.94;2089766;28;20109;-71
2023/03/24 04:28:06;;;;;;;17.85;8.40;;;;;;;15.44;100.00;101026.28;2080235;28;20417;-71
2023/03/24 04:29:36;;;;;;;17.35;8.98;;;;;;;15.47;100.00;101034.28;2079200;28;20061;-71
2023/03/24 04:31:06;;;;;;;15.60;8.10;;;;;;;15.48;100.00;101030.75;2078568;28;20497;-70
2023/03/24 04:32:34;;;;;;;16.75;8.55;;;;;;;15.51;100.00;101032.50;2083458;28;20311;-71
2023/03/24 04:34:02;;;;;;;17.50;8.18;;;;;;;15.52;100.00;101032.53;2077923;28;20052;-70
2023/03/24 04:35:31;;;;;;;15.32;9.10;;;;;;;15.53;100.00;101031.66;2095082;28;20051;-70
2023/03/24 04:37:36;;;;;;;16.33;7.70;;;;;;;15.51;100.00;101025.41;2106958;28;20104;-71
2023/03/24 04:39:06;;;;;;;14.30;7.80;;;;;;;15.51;100.00;101025.41;2080054;28;20038;-71
2023/03/24 04:40:40;;;;;;;16.90;8.63;;;;;;;15.54;100.00;101027.22;2075482;28;20045;-70
2023/03/24 04:42:05;;;;;;;15.65;8.00;;;;;;;15.57;100.00;101031.63;2084360;28;20033;-70
2023/03/24 04:43:37;;;;;;;16.60;8.50;;;;;;;15.59;100.00;101036.06;2076817;28;20081;-70
2023/03/24 04:45:04;;;;;;;16.85;7.97;;;;;;;15.62;100.00;101030.72;2077759;28;20075;-70
2023/03/24 04:46:41;;;;;;;13.98;7.57;;;;;;;15.66;100.00;101036.97;2077135;28;20053;-71
2023/03/24 04:48:12;;;;;;;16.83;8.25;;;;;;;15.71;100.00;101030.75;2068946;28;20906;-70
2023/03/24 04:50:02;;;;;;;15.07;8.38;;;;;;;15.76;100.00;101038.72;2096902;28;20048;-71
2023/03/24 04:51:27;;;;;;;13.88;8.35;;;;;;;15.79;100.00;101030.75;2079427;28;20045;-70
2023/03/24 04:53:00;;;;;;;15.18;8.38;;;;;;;15.83;100.00;101037.81;2086494;28;20132;-71
2023/03/24 04:54:23;;;;;;;16.88;9.18;;;;;;;15.87;100.00;101036.94;2085757;28;20067;-70
2023/03/24 04:56:07;;;;;;;16.40;7.55;;;;;;;15.91;100.00;101033.38;2070276;28;20054;-71
2023/03/24 04:57:53;;;;;;;16.83;8.90;;;;;;;15.93;100.00;101032.50;2086156;28;20135;-71
2023/03/24 04:59:20;;;;;;;15.25;8.35;;;;;;;16.00;100.00;101022.72;2085531;28;20553;-71
2023/03/24 05:00:43;;;;;;;17.20;8.18;;;;;;;16.05;100.00;101031.56;2075850;28;20073;-71
2023/03/24 05:02:05;;;;;;;13.65;8.73;;;;;;;16.08;100.00;101030.69;2082294;28;20580;-71
2023/03/24 05:03:36;;;;;;;14.65;9.45;;;;;;;16.09;100.00;101035.09;2072758;28;20037;-71
2023/03/24 05:05:00;;;;;;;16.63;8.85;;;;;;;16.10;100.00;101037.75;2083875;28;20084;-71
2023/03/24 05:06:32;;;;;;;13.27;9.02;;;;;;;16.09;100.00;101029.78;2086101;28;20508;-71
2023/03/24 05:07:55;;;;;;;17.02;10.63;;;;;;;16.10;100.00;101032.44;2075529;28;20049;-71
2023/03/24 05:09:20;;;;;;;15.13;11.00;;;;;;;16.10;100.00;101032.44;2061526;28;20046;-70
2023/03/24 05:10:43;;;;;;;20.10;11.98;;;;;;;16.13;100.00;101034.22;2077244;28;20052;-70
2023/03/24 05:12:06;;;;;;;18.52;11.02;;;;;;;16.13;100.00;101040.44;2085535;28;20052;-70
2023/03/24 05:13:47;;;;;;;17.70;11.50;;;;;;;16.12;100.00;101038.66;2072016;28;20042;-70
2023/03/24 05:15:12;;;;;;;16.70;10.57;;;;;;;16.15;100.00;101046.63;2080128;28;20044;-70
2023/03/24 05:16:36;;;;;;;26.15;17.55;;;;;;;16.17;100.00;101046.63;2080096;28;20053;-70
2023/03/24 05:17:58;;;;;;;34.22;21.38;;;;;;;16.20;100.00;101042.19;2088419;28;20581;-70
2023/03/24 05:19:21;;;;;;;50.25;22.83;;;;;;;16.22;100.00;101039.50;2088141;28;20676;-70
2023/03/24 05:20:44;;;;;;;34.17;19.35;;;;;;;16.24;100.00;101043.94;2079886;28;20053;-70
2023/03/24 05:22:13;;;;;;;30.33;21.50;;;;;;;16.27;100.00;101040.41;2079999;28;20069;-70
2023/03/24 05:23:34;;;;;;;19.75;14.95;;;;;;;16.30;100.00;101040.38;2077388;28;20045;-70
2023/03/24 05:24:57;;;;;;;21.35;18.63;;;;;;;16.33;100.00;101046.59;2080352;28;20116;-70
2023/03/24 05:26:18;;;;;;;19.63;15.75;;;;;;;16.41;100.00;101040.34;2085904;28;20053;-70
2023/03/24 05:27:56;;;;;;;17.33;11.07;;;;;;;16.46;100.00;101044.78;2085103;28;20375;-70
2023/03/24 05:29:21;;;;;;;17.95;11.43;;;;;;;16.52;100.00;101041.19;2075621;28;20502;-69
2023/03/24 05:30:44;;;;;;;16.23;10.85;;;;;;;16.59;100.00;101049.16;2085666;28;20044;-70
2023/03/24 05:32:23;;;;;;;21.50;19.17;;;;;;;16.64;100.00;101049.16;2073271;28;20046;-70
2023/03/24 05:33:47;;;;;;;20.23;13.90;;;;;;;16.70;100.00;101046.47;2075160;28;20529;-70
2023/03/24 05:35:13;;;;;;;21.70;14.77;;;;;;;16.73;100.00;101046.47;2082885;28;20535;-70
2023/03/24 05:36:37;;;;;;;16.48;11.65;;;;;;;16.76;100.00;101045.53;2069543;28;20050;-69
2023/03/24 05:37:58;;;;;;;20.17;13.55;;;;;;;16.78;100.00;101054.44;2091650;28;20041;-70
2023/03/24 05:39:21;;;;;;;15.43;10.57;;;;;;;16.80;100.00;101050.88;2074214;28;20045;-70
2023/03/24 05:40:57;;;;;;;18.80;11.25;;;;;;;16.84;100.00;101057.06;2093507;28;20055;-70
2023/03/24 05:42:22;;;;;;;18.40;12.57;;;;;;;16.85;100.00;101056.16;2072126;28;20580;-71
2023/03/24 05:43:44;;;;;;;15.27;11.35;;;;;;;16.85;100.00;101065.06;2070119;28;20107;-71
2023/03/24 05:45:10;;;;;;;14.43;10.30;;;;;;;16.86;100.00;101057.94;2074699;28;20046;-71
2023/03/24 05:46:35;;;;;;;17.10;11.57;;;;;;;16.88;100.00;101069.47;2082722;28;20075;-69
2023/03/24 05:48:02;;;;;;;15.93;10.93;;;;;;;16.87;100.00;101067.72;2091820;28;20055;-70
2023/03/24 05:49:41;;;;;;;16.23;10.05;;;;;;;16.86;100.00;101071.28;2087999;28;20490;-71
2023/03/24 05:51:04;;;;;;;15.93;10.68;;;;;;;16.86;100.00;101073.94;2094597;28;20056;-70
2023/03/24 05:52:27;;;;;;;17.73;11.63;;;;;;;16.84;100.00;101075.72;2080183;28;20053;-70
2023/03/24 05:53:58;;;;;;;13.90;10.52;;;;;;;16.83;100.00;101081.94;2076834;28;20053;-69
2023/03/24 05:55:29;;;;;;;14.75;9.55;;;;;;;16.84;100.00;101084.63;2090649;28;20160;-69
2023/03/24 05:56:58;;;;;;;18.33;9.75;;;;;;;16.85;100.00;101080.16;2096517;28;20580;-69
2023/03/24 05:58:38;;;;;;;14.63;9.30;;;;;;;16.84;100.00;101089.94;2079385;28;20150;-69
2023/03/24 06:00:01;;;;;;;15.63;12.13;;;;;;;16.85;100.00;101085.50;2076761;28;20045;-70
2023/03/24 06:02:00;;;;;;;16.80;12.48;;;;;;;16.83;100.00;101092.63;2085198;28;20084;-69
2023/03/24 06:03:45;;;;;;;21.38;13.18;;;;;;;16.84;100.00;101105.06;2096454;28;20058;-69
2023/03/24 06:05:09;;;;;;;21.02;14.02;;;;;;;16.87;100.00;101097.06;2075950;28;20452;-70
2023/03/24 06:06:32;;;;;;;20.52;14.02;;;;;;;16.91;100.00;101101.47;2073740;28;20038;-70
2023/03/24 06:07:57;;;;;;;21.42;12.63;;;;;;;16.94;100.00;101099.66;2074540;28;20401;-68
2023/03/24 06:09:21;;;;;;;18.38;12.00;;;;;;;16.98;100.00;101098.78;2094402;28;20563;-70
2023/03/24 06:10:43;;;;;;;16.83;11.40;;;;;;;17.04;100.00;101101.41;2081759;28;20049;-69
2023/03/24 06:12:05;;;;;;;21.00;12.07;;;;;;;17.11;100.00;101099.59;2066535;28;20038;-69
2023/03/24 06:13:31;;;;;;;19.80;11.70;;;;;;;17.16;100.00;101092.44;2069447;28;20433;-69
2023/03/24 06:14:54;;;;;;;16.45;10.80;;;;;;;17.19;100.00;101095.09;2075066;28;20061;-70
2023/03/24 06:16:17;;;;;;;17.45;11.77;;;;;;;17.24;100.00;101097.72;2073249;28;20052;-70
2023/03/24 06:17:53;;;;;;;15.73;11.00;;;;;;;17.25;100.00;101095.06;2070518;28;20058;-69
2023/03/24 06:19:32;;;;;;;18.63;10.98;;;;;;;17.30;100.00;101093.25;2094527;28;20496;-69
2023/03/24 06:21:07;;;;;;;17.20;11.88;;;;;;;17.40;100.00;101086.94;2078177;28;20659;-70
2023/03/24 06:22:32;;;;;;;14.05;12.30;;;;;;;17.44;100.00;101083.34;2091189;28;20044;-69
2023/03/24 06:23:56;;;;;;;22.10;10.35;;;;;;;17.47;100.00;101082.44;2086880;28;20056;-69
2023/03/24 06:25:26;;;;;;;15.52;9.35;;;;;;;17.50;100.00;101088.66;2072465;28;20045;-70
2023/03/24 06:27:02;;;;;;;14.85;9.57;;;;;;;17.57;100.00;101093.94;2077584;28;20473;-69
2023/03/24 06:28:33;;;;;;;17.30;10.98;;;;;;;17.59;100.00;101102.84;2074761;28;20148;-69
2023/03/24 06:29:58;;;;;;;16.48;10.38;;;;;;;17.61;100.00;101099.28;2073553;28;20049;-70
2023/03/24 06:31:22;;;;;;;13.88;8.50;;;;;;;17.63;100.00;101093.91;2076945;28;20708;-70
2023/03/24 06:32:47;;;;;;;16.40;9.45;;;;;;;17.62;100.00;101094.81;2077739;28;20045;-69
2023/03/24 06:34:13;;;;;;;16.67;10.02;;;;;;;17.63;100.00;101100.16;2082385;28;20392;-69
2023/03/24 06:35:38;;;;;;;16.20;9.25;;;;;;;17.64;100.00;101096.59;2075823;28;20045;-70
2023/03/24 06:37:03;;;;;;;14.95;9.27;;;;;;;17.68;100.00;101103.66;2075485;28;20045;-70
2023/03/24 06:38:25;;;;;;;13.43;8.05;;;;;;;17.75;100.00;101116.06;2074324;28;20049;-69
2023/03/24 06:39:47;;;;;;;20.00;10.40;;;;;;;17.83;100.00;101116.00;2072215;28;20041;-70
2023/03/24 06:41:12;;;;;;;16.33;10.52;;;;;;;17.88;100.00;101122.19;2085892;28;20327;-70
2023/03/24 06:42:34;;;;;;;16.20;9.68;;;;;;;17.95;100.00;101128.38;2079490;28;20486;-69